sensor_id;sensor_type;location;lat;lon;timestamp;temperature;humidity
36442;DHT22;64346;50.820;16.274;2023-05-03T00:01:31;10.90;99.90
36442;DHT22;64346;50.820;16.274;2023-05-03T00:03:58;11.00;99.90
36442;DHT22;64346;50.820;16.274;2023-05-03T00:06:28;11.00;99.90
36442;DHT22;64346;50.820;16.274;2023-05-03T00:08:58;11.00;99.90
36442;DHT22;64346;50.820;16.274;2023-05-03T00:11:25;11.10;99.90
36442;DHT22;64346;50.820;16.274;2023-05-03T00:13:52;11.10;99.90
36442;DHT22;64346;50.820;16.274;2023-05-03T00:16:22;11.00;99.90
36442;DHT22;64346;50.820;16.274;2023-05-03T00:18:51;11.00;99.90
36442;DHT22;64346;50.820;16.274;2023-05-03T00:21:18;11.00;99.90
36442;DHT22;64346;50.820;16.274;2023-05-03T00:23:50;11.00;99.90
36442;DHT22;64346;50.820;16.274;2023-05-03T00:26:17;11.00;99.90
36442;DHT22;64346;50.820;16.274;2023-05-03T00:28:45;11.00;99.90
36442;DHT22;64346;50.820;16.274;2023-05-03T00:31:14;11.00;99.90
36442;DHT22;64346;50.820;16.274;2023-05-03T00:33:42;11.00;99.90
36442;DHT22;64346;50.820;16.274;2023-05-03T00:36:11;11.00;99.90
36442;DHT22;64346;50.820;16.274;2023-05-03T00:38:41;11.00;99.90
36442;DHT22;64346;50.820;16.274;2023-05-03T00:41:10;10.90;99.90
36442;DHT22;64346;50.820;16.274;2023-05-03T00:43:38;10.90;99.90
36442;DHT22;64346;50.820;16.274;2023-05-03T00:46:05;10.90;99.90
36442;DHT22;64346;50.820;16.274;2023-05-03T00:48:46;10.90;99.90
36442;DHT22;64346;50.820;16.274;2023-05-03T00:51:14;10.80;99.90
36442;DHT22;64346;50.820;16.274;2023-05-03T00:53:42;10.80;99.90
36442;DHT22;64346;50.820;16.274;2023-05-03T00:56:16;10.90;99.90
36442;DHT22;64346;50.820;16.274;2023-05-03T00:58:44;10.90;99.90
36442;DHT22;64346;50.820;16.274;2023-05-03T01:01:14;10.80;99.90
36442;DHT22;64346;50.820;16.274;2023-05-03T01:03:42;10.70;99.90
36442;DHT22;64346;50.820;16.274;2023-05-03T01:17:19;10.40;99.90
36442;DHT22;64346;50.820;16.274;2023-05-03T01:19:55;10.30;99.90
36442;DHT22;64346;50.820;16.274;2023-05-03T01:25:19;10.20;99.90
36442;DHT22;64346;50.820;16.274;2023-05-03T01:27:46;10.10;99.90
36442;DHT22;64346;50.820;16.274;2023-05-03T01:30:14;10.10;99.90
36442;DHT22;64346;50.820;16.274;2023-05-03T01:38:15;10.20;99.90
36442;DHT22;64346;50.820;16.274;2023-05-03T01:40:51;10.20;99.90
36442;DHT22;64346;50.820;16.274;2023-05-03T01:43:20;10.30;99.90
36442;DHT22;64346;50.820;16.274;2023-05-03T01:45:48;10.20;99.90
36442;DHT22;64346;50.820;16.274;2023-05-03T01:48:19;10.20;99.90
36442;DHT22;64346;50.820;16.274;2023-05-03T01:50:48;10.10;99.90
36442;DHT22;64346;50.820;16.274;2023-05-03T01:53:15;10.10;99.90
36442;DHT22;64346;50.820;16.274;2023-05-03T01:55:42;10.10;99.90
36442;DHT22;64346;50.820;16.274;2023-05-03T01:58:10;10.10;99.90
36442;DHT22;64346;50.820;16.274;2023-05-03T02:00:39;10.10;99.90
36442;DHT22;64346;50.820;16.274;2023-05-03T02:03:06;10.10;99.90
36442;DHT22;64346;50.820;16.274;2023-05-03T02:05:36;10.20;99.90
36442;DHT22;64346;50.820;16.274;2023-05-03T02:08:03;10.30;99.90
36442;DHT22;64346;50.820;16.274;2023-05-03T02:10:30;10.30;99.90
36442;DHT22;64346;50.820;16.274;2023-05-03T02:13:00;10.40;99.90
36442;DHT22;64346;50.820;16.274;2023-05-03T02:15:27;10.40;99.90
36442;DHT22;64346;50.820;16.274;2023-05-03T02:17:57;10.40;99.90
36442;DHT22;64346;50.820;16.274;2023-05-03T02:20:24;10.30;99.90
36442;DHT22;64346;50.820;16.274;2023-05-03T02:22:54;10.30;99.90
36442;DHT22;64346;50.820;16.274;2023-05-03T02:25:21;10.30;99.90
36442;DHT22;64346;50.820;16.274;2023-05-03T02:27:48;10.30;99.90
36442;DHT22;64346;50.820;16.274;2023-05-03T02:30:15;10.30;99.90
36442;DHT22;64346;50.820;16.274;2023-05-03T02:32:42;10.20;99.90
36442;DHT22;64346;50.820;16.274;2023-05-03T02:35:10;10.10;99.90
36442;DHT22;64346;50.820;16.274;2023-05-03T02:37:37;10.10;99.90
36442;DHT22;64346;50.820;16.274;2023-05-03T02:40:05;10.00;99.90
36442;DHT22;64346;50.820;16.274;2023-05-03T02:42:32;10.00;99.90
36442;DHT22;64346;50.820;16.274;2023-05-03T02:44:59;10.10;99.90
36442;DHT22;64346;50.820;16.274;2023-05-03T02:47:26;10.10;99.90
36442;DHT22;64346;50.820;16.274;2023-05-03T02:49:54;10.00;99.90
36442;DHT22;64346;50.820;16.274;2023-05-03T02:52:21;9.90;99.90
36442;DHT22;64346;50.820;16.274;2023-05-03T02:54:51;9.80;99.90
36442;DHT22;64346;50.820;16.274;2023-05-03T02:57:18;9.80;99.90
36442;DHT22;64346;50.820;16.274;2023-05-03T02:59:45;9.70;99.90
36442;DHT22;64346;50.820;16.274;2023-05-03T03:02:12;9.70;99.90
36442;DHT22;64346;50.820;16.274;2023-05-03T03:04:39;9.60;99.90
36442;DHT22;64346;50.820;16.274;2023-05-03T03:07:06;9.50;99.90
36442;DHT22;64346;50.820;16.274;2023-05-03T03:09:34;9.40;99.90
36442;DHT22;64346;50.820;16.274;2023-05-03T03:12:01;9.40;99.90
36442;DHT22;64346;50.820;16.274;2023-05-03T03:14:29;9.40;99.90
36442;DHT22;64346;50.820;16.274;2023-05-03T03:17:00;9.40;99.90
36442;DHT22;64346;50.820;16.274;2023-05-03T03:19:30;9.40;99.90
36442;DHT22;64346;50.820;16.274;2023-05-03T03:21:59;9.50;99.90
36442;DHT22;64346;50.820;16.274;2023-05-03T03:24:26;9.50;99.90
36442;DHT22;64346;50.820;16.274;2023-05-03T03:26:56;9.50;99.90
36442;DHT22;64346;50.820;16.274;2023-05-03T03:29:23;9.50;99.90
36442;DHT22;64346;50.820;16.274;2023-05-03T03:31:50;9.50;99.90
36442;DHT22;64346;50.820;16.274;2023-05-03T03:34:18;9.50;99.90
36442;DHT22;64346;50.820;16.274;2023-05-03T03:36:47;9.50;99.90
36442;DHT22;64346;50.820;16.274;2023-05-03T03:39:17;9.50;99.90
36442;DHT22;64346;50.820;16.274;2023-05-03T03:41:46;9.50;99.90
36442;DHT22;64346;50.820;16.274;2023-05-03T03:44:16;9.40;99.90
36442;DHT22;64346;50.820;16.274;2023-05-03T03:46:43;9.20;99.90
36442;DHT22;64346;50.820;16.274;2023-05-03T03:49:10;9.10;99.90
36442;DHT22;64346;50.820;16.274;2023-05-03T03:51:42;9.00;99.90
36442;DHT22;64346;50.820;16.274;2023-05-03T03:54:09;8.90;99.90
36442;DHT22;64346;50.820;16.274;2023-05-03T03:56:39;9.00;99.90
36442;DHT22;64346;50.820;16.274;2023-05-03T03:59:09;9.20;99.90
36442;DHT22;64346;50.820;16.274;2023-05-03T04:01:36;9.30;99.90
36442;DHT22;64346;50.820;16.274;2023-05-03T04:04:03;9.50;99.90
36442;DHT22;64346;50.820;16.274;2023-05-03T04:06:31;9.50;99.90
36442;DHT22;64346;50.820;16.274;2023-05-03T04:08:58;9.50;99.90
36442;DHT22;64346;50.820;16.274;2023-05-03T04:11:25;9.50;99.90
36442;DHT22;64346;50.820;16.274;2023-05-03T04:13:55;9.70;99.90
36442;DHT22;64346;50.820;16.274;2023-05-03T04:16:22;10.00;99.90
36442;DHT22;64346;50.820;16.274;2023-05-03T04:18:52;10.40;99.90
36442;DHT22;64346;50.820;16.274;2023-05-03T04:21:19;10.80;99.90
36442;DHT22;64346;50.820;16.274;2023-05-03T04:23:46;11.10;99.90
36442;DHT22;64346;50.820;16.274;2023-05-03T04:26:13;11.30;99.90
36442;DHT22;64346;50.820;16.274;2023-05-03T04:28:58;11.60;99.90
36442;DHT22;64346;50.820;16.274;2023-05-03T04:31:25;11.80;99.90
36442;DHT22;64346;50.820;16.274;2023-05-03T04:33:52;11.80;99.90
36442;DHT22;64346;50.820;16.274;2023-05-03T04:36:20;11.70;99.90
36442;DHT22;64346;50.820;16.274;2023-05-03T04:38:47;12.00;99.90
36442;DHT22;64346;50.820;16.274;2023-05-03T04:41:16;12.50;99.90
36442;DHT22;64346;50.820;16.274;2023-05-03T04:43:44;13.00;99.90
36442;DHT22;64346;50.820;16.274;2023-05-03T04:46:11;13.50;99.90
36442;DHT22;64346;50.820;16.274;2023-05-03T04:48:38;14.10;99.10
36442;DHT22;64346;50.820;16.274;2023-05-03T04:51:08;14.70;98.10
36442;DHT22;64346;50.820;16.274;2023-05-03T04:53:35;15.20;97.30
36442;DHT22;64346;50.820;16.274;2023-05-03T04:56:04;15.80;96.10
36442;DHT22;64346;50.820;16.274;2023-05-03T04:58:32;16.20;94.90
36442;DHT22;64346;50.820;16.274;2023-05-03T05:01:01;16.30;94.10
36442;DHT22;64346;50.820;16.274;2023-05-03T05:03:31;15.90;93.70
36442;DHT22;64346;50.820;16.274;2023-05-03T05:06:01;15.40;93.90
36442;DHT22;64346;50.820;16.274;2023-05-03T05:08:28;14.90;94.40
36442;DHT22;64346;50.820;16.274;2023-05-03T05:11:01;14.60;94.60
36442;DHT22;64346;50.820;16.274;2023-05-03T05:13:28;14.40;94.70
36442;DHT22;64346;50.820;16.274;2023-05-03T05:15:59;14.30;94.70
36442;DHT22;64346;50.820;16.274;2023-05-03T05:18:27;14.20;94.80
36442;DHT22;64346;50.820;16.274;2023-05-03T05:20:54;14.10;94.90
36442;DHT22;64346;50.820;16.274;2023-05-03T05:23:21;14.20;95.40
36442;DHT22;64346;50.820;16.274;2023-05-03T05:25:51;14.40;94.60
36442;DHT22;64346;50.820;16.274;2023-05-03T05:28:18;14.50;94.70
36442;DHT22;64346;50.820;16.274;2023-05-03T05:30:45;14.40;94.40
36442;DHT22;64346;50.820;16.274;2023-05-03T05:33:15;14.20;94.50
36442;DHT22;64346;50.820;16.274;2023-05-03T05:35:47;14.00;94.80
36442;DHT22;64346;50.820;16.274;2023-05-03T05:38:17;13.80;95.20
36442;DHT22;64346;50.820;16.274;2023-05-03T05:40:44;13.60;95.80
36442;DHT22;64346;50.820;16.274;2023-05-03T05:43:16;13.40;95.70
36442;DHT22;64346;50.820;16.274;2023-05-03T05:45:45;13.30;95.50
36442;DHT22;64346;50.820;16.274;2023-05-03T05:48:15;13.20;95.80
36442;DHT22;64346;50.820;16.274;2023-05-03T05:50:42;13.20;95.90
36442;DHT22;64346;50.820;16.274;2023-05-03T05:53:09;13.50;95.50
36442;DHT22;64346;50.820;16.274;2023-05-03T05:55:39;14.00;94.80
36442;DHT22;64346;50.820;16.274;2023-05-03T05:58:06;14.60;93.90
36442;DHT22;64346;50.820;16.274;2023-05-03T06:00:33;14.70;93.20
36442;DHT22;64346;50.820;16.274;2023-05-03T06:03:01;14.30;93.00
36442;DHT22;64346;50.820;16.274;2023-05-03T06:05:30;13.90;93.40
36442;DHT22;64346;50.820;16.274;2023-05-03T06:07:58;13.80;93.40
36442;DHT22;64346;50.820;16.274;2023-05-03T06:10:25;13.70;93.90
36442;DHT22;64346;50.820;16.274;2023-05-03T06:12:52;13.50;93.50
36442;DHT22;64346;50.820;16.274;2023-05-03T06:15:19;13.40;93.70
36442;DHT22;64346;50.820;16.274;2023-05-03T06:17:48;13.20;93.70
36442;DHT22;64346;50.820;16.274;2023-05-03T06:20:15;12.90;93.50
36442;DHT22;64346;50.820;16.274;2023-05-03T06:22:43;12.70;94.20
36442;DHT22;64346;50.820;16.274;2023-05-03T06:25:13;12.70;94.20
36442;DHT22;64346;50.820;16.274;2023-05-03T06:27:43;12.70;93.80
36442;DHT22;64346;50.820;16.274;2023-05-03T06:30:13;12.70;94.00
36442;DHT22;64346;50.820;16.274;2023-05-03T06:32:41;12.90;94.00
36442;DHT22;64346;50.820;16.274;2023-05-03T06:35:08;13.20;94.20
36442;DHT22;64346;50.820;16.274;2023-05-03T06:37:35;13.60;93.50
36442;DHT22;64346;50.820;16.274;2023-05-03T06:40:03;14.00;93.00
36442;DHT22;64346;50.820;16.274;2023-05-03T06:42:31;14.40;92.70
36442;DHT22;64346;50.820;16.274;2023-05-03T06:45:00;14.80;91.90
36442;DHT22;64346;50.820;16.274;2023-05-03T06:47:28;15.10;91.50
36442;DHT22;64346;50.820;16.274;2023-05-03T06:49:55;15.10;90.70
36442;DHT22;64346;50.820;16.274;2023-05-03T06:52:22;14.90;90.20
36442;DHT22;64346;50.820;16.274;2023-05-03T06:54:49;14.70;90.50
36442;DHT22;64346;50.820;16.274;2023-05-03T06:57:17;14.40;89.90
36442;DHT22;64346;50.820;16.274;2023-05-03T06:59:46;14.20;90.10
36442;DHT22;64346;50.820;16.274;2023-05-03T07:02:14;14.00;89.30
36442;DHT22;64346;50.820;16.274;2023-05-03T07:04:41;13.90;90.00
36442;DHT22;64346;50.820;16.274;2023-05-03T07:07:08;14.00;90.10
36442;DHT22;64346;50.820;16.274;2023-05-03T07:09:35;14.00;89.00
36442;DHT22;64346;50.820;16.274;2023-05-03T07:12:12;14.20;89.60
36442;DHT22;64346;50.820;16.274;2023-05-03T07:14:44;14.30;89.40
36442;DHT22;64346;50.820;16.274;2023-05-03T07:17:12;14.30;89.20
36442;DHT22;64346;50.820;16.274;2023-05-03T07:19:39;14.20;90.10
36442;DHT22;64346;50.820;16.274;2023-05-03T07:22:06;14.10;90.10
36442;DHT22;64346;50.820;16.274;2023-05-03T07:24:33;14.00;90.50
36442;DHT22;64346;50.820;16.274;2023-05-03T07:27:01;14.00;90.30
36442;DHT22;64346;50.820;16.274;2023-05-03T07:29:30;14.00;90.40
36442;DHT22;64346;50.820;16.274;2023-05-03T07:31:58;14.10;90.60
36442;DHT22;64346;50.820;16.274;2023-05-03T07:34:25;14.40;90.00
36442;DHT22;64346;50.820;16.274;2023-05-03T07:36:55;14.70;87.30
36442;DHT22;64346;50.820;16.274;2023-05-03T07:39:22;15.60;86.90
36442;DHT22;64346;50.820;16.274;2023-05-03T07:41:49;17.90;83.20
36442;DHT22;64346;50.820;16.274;2023-05-03T07:44:16;20.30;77.60
36442;DHT22;64346;50.820;16.274;2023-05-03T07:46:43;23.00;69.70
36442;DHT22;64346;50.820;16.274;2023-05-03T07:49:10;24.70;63.10
36442;DHT22;64346;50.820;16.274;2023-05-03T07:51:38;26.60;58.80
36442;DHT22;64346;50.820;16.274;2023-05-03T07:54:05;29.90;52.80
36442;DHT22;64346;50.820;16.274;2023-05-03T07:56:33;33.00;47.30
36442;DHT22;64346;50.820;16.274;2023-05-03T07:59:00;35.10;43.70
36442;DHT22;64346;50.820;16.274;2023-05-03T08:01:32;34.80;41.10
36442;DHT22;64346;50.820;16.274;2023-05-03T08:03:59;32.90;41.20
36442;DHT22;64346;50.820;16.274;2023-05-03T08:06:27;33.10;41.50
36442;DHT22;64346;50.820;16.274;2023-05-03T08:08:54;34.70;40.60
36442;DHT22;64346;50.820;16.274;2023-05-03T08:11:22;35.60;39.40
36442;DHT22;64346;50.820;16.274;2023-05-03T08:13:49;35.70;38.90
36442;DHT22;64346;50.820;16.274;2023-05-03T08:16:16;36.40;38.10
36442;DHT22;64346;50.820;16.274;2023-05-03T08:18:43;37.00;38.00
36442;DHT22;64346;50.820;16.274;2023-05-03T08:21:11;37.80;37.30
36442;DHT22;64346;50.820;16.274;2023-05-03T08:23:40;37.70;36.60
36442;DHT22;64346;50.820;16.274;2023-05-03T08:26:13;37.60;36.00
36442;DHT22;64346;50.820;16.274;2023-05-03T08:28:41;37.70;35.70
36442;DHT22;64346;50.820;16.274;2023-05-03T08:31:11;37.70;35.90
36442;DHT22;64346;50.820;16.274;2023-05-03T08:33:38;37.80;35.50
36442;DHT22;64346;50.820;16.274;2023-05-03T08:36:06;39.10;35.90
36442;DHT22;64346;50.820;16.274;2023-05-03T08:38:33;39.40;34.60
36442;DHT22;64346;50.820;16.274;2023-05-03T08:41:08;39.20;34.90
36442;DHT22;64346;50.820;16.274;2023-05-03T08:43:43;39.50;35.10
36442;DHT22;64346;50.820;16.274;2023-05-03T08:46:13;40.40;33.90
36442;DHT22;64346;50.820;16.274;2023-05-03T08:48:41;40.40;33.70
36442;DHT22;64346;50.820;16.274;2023-05-03T08:51:10;40.20;33.20
36442;DHT22;64346;50.820;16.274;2023-05-03T08:53:39;39.60;33.90
36442;DHT22;64346;50.820;16.274;2023-05-03T08:56:08;39.30;34.20
36442;DHT22;64346;50.820;16.274;2023-05-03T08:58:36;39.30;34.10
36442;DHT22;64346;50.820;16.274;2023-05-03T09:01:07;38.60;33.50
36442;DHT22;64346;50.820;16.274;2023-05-03T09:03:36;37.80;34.30
36442;DHT22;64346;50.820;16.274;2023-05-03T09:06:18;36.90;34.40
36442;DHT22;64346;50.820;16.274;2023-05-03T09:08:46;35.00;34.60
36442;DHT22;64346;50.820;16.274;2023-05-03T09:13:48;35.10;35.10
36442;DHT22;64346;50.820;16.274;2023-05-03T09:16:26;35.30;35.80
36442;DHT22;64346;50.820;16.274;2023-05-03T09:18:58;35.20;35.30
36442;DHT22;64346;50.820;16.274;2023-05-03T09:21:27;34.90;36.30
36442;DHT22;64346;50.820;16.274;2023-05-03T09:23:57;34.60;36.40
36442;DHT22;64346;50.820;16.274;2023-05-03T09:26:28;34.50;35.50
36442;DHT22;64346;50.820;16.274;2023-05-03T09:28:57;33.70;35.80
36442;DHT22;64346;50.820;16.274;2023-05-03T09:31:25;32.50;35.50
36442;DHT22;64346;50.820;16.274;2023-05-03T09:33:55;31.40;36.80
36442;DHT22;64346;50.820;16.274;2023-05-03T09:36:23;30.70;36.90
36442;DHT22;64346;50.820;16.274;2023-05-03T09:38:51;30.00;37.40
36442;DHT22;64346;50.820;16.274;2023-05-03T09:41:29;28.80;38.80
36442;DHT22;64346;50.820;16.274;2023-05-03T09:43:56;28.10;39.20
36442;DHT22;64346;50.820;16.274;2023-05-03T09:46:24;27.50;40.10
36442;DHT22;64346;50.820;16.274;2023-05-03T09:48:51;26.50;40.90
36442;DHT22;64346;50.820;16.274;2023-05-03T09:51:22;25.50;42.10
36442;DHT22;64346;50.820;16.274;2023-05-03T09:53:50;24.60;43.40
36442;DHT22;64346;50.820;16.274;2023-05-03T09:56:17;24.10;44.00
36442;DHT22;64346;50.820;16.274;2023-05-03T09:58:46;23.70;46.00
36442;DHT22;64346;50.820;16.274;2023-05-03T10:01:16;23.70;43.70
36442;DHT22;64346;50.820;16.274;2023-05-03T10:03:46;23.40;44.30
36442;DHT22;64346;50.820;16.274;2023-05-03T10:06:39;22.80;45.40
36442;DHT22;64346;50.820;16.274;2023-05-03T10:09:37;21.90;45.80
36442;DHT22;64346;50.820;16.274;2023-05-03T10:12:09;21.00;46.70
36442;DHT22;64346;50.820;16.274;2023-05-03T10:14:36;20.10;47.70
36442;DHT22;64346;50.820;16.274;2023-05-03T10:17:09;19.50;49.00
36442;DHT22;64346;50.820;16.274;2023-05-03T10:19:50;19.50;49.90
36442;DHT22;64346;50.820;16.274;2023-05-03T10:22:18;19.60;49.40
36442;DHT22;64346;50.820;16.274;2023-05-03T10:30:37;19.60;49.50
36442;DHT22;64346;50.820;16.274;2023-05-03T10:35:49;19.20;50.60
36442;DHT22;64346;50.820;16.274;2023-05-03T10:38:25;19.20;50.60
36442;DHT22;64346;50.820;16.274;2023-05-03T10:40:54;19.20;50.70
36442;DHT22;64346;50.820;16.274;2023-05-03T10:48:25;18.50;51.70
36442;DHT22;64346;50.820;16.274;2023-05-03T10:50:53;18.30;51.80
36442;DHT22;64346;50.820;16.274;2023-05-03T10:53:42;18.10;51.30
36442;DHT22;64346;50.820;16.274;2023-05-03T10:56:13;18.10;51.80
36442;DHT22;64346;50.820;16.274;2023-05-03T10:58:45;18.30;53.00
36442;DHT22;64346;50.820;16.274;2023-05-03T11:01:17;18.30;51.30
36442;DHT22;64346;50.820;16.274;2023-05-03T11:04:04;18.30;51.30
36442;DHT22;64346;50.820;16.274;2023-05-03T11:06:46;18.50;51.40
36442;DHT22;64346;50.820;16.274;2023-05-03T11:09:13;18.70;53.80
36442;DHT22;64346;50.820;16.274;2023-05-03T11:11:45;19.00;53.90
36442;DHT22;64346;50.820;16.274;2023-05-03T11:14:13;19.10;52.30
36442;DHT22;64346;50.820;16.274;2023-05-03T11:16:40;19.10;52.80
36442;DHT22;64346;50.820;16.274;2023-05-03T11:19:11;19.20;51.30
36442;DHT22;64346;50.820;16.274;2023-05-03T11:21:38;19.00;50.30
36442;DHT22;64346;50.820;16.274;2023-05-03T11:24:05;18.90;51.70
36442;DHT22;64346;50.820;16.274;2023-05-03T11:26:37;18.80;51.70
36442;DHT22;64346;50.820;16.274;2023-05-03T11:29:08;18.50;52.80
36442;DHT22;64346;50.820;16.274;2023-05-03T11:31:35;18.10;53.00
36442;DHT22;64346;50.820;16.274;2023-05-03T11:34:05;17.80;53.90
36442;DHT22;64346;50.820;16.274;2023-05-03T11:36:39;17.60;53.90
36442;DHT22;64346;50.820;16.274;2023-05-03T11:39:10;17.60;54.70
36442;DHT22;64346;50.820;16.274;2023-05-03T11:41:37;17.80;55.20
36442;DHT22;64346;50.820;16.274;2023-05-03T11:44:05;18.00;55.30
36442;DHT22;64346;50.820;16.274;2023-05-03T11:46:42;18.10;53.90
36442;DHT22;64346;50.820;16.274;2023-05-03T11:49:16;17.90;53.30
36442;DHT22;64346;50.820;16.274;2023-05-03T11:51:43;17.90;54.80
36442;DHT22;64346;50.820;16.274;2023-05-03T11:54:16;17.90;53.40
36442;DHT22;64346;50.820;16.274;2023-05-03T11:56:55;17.70;53.60
36442;DHT22;64346;50.820;16.274;2023-05-03T11:59:40;17.60;53.60
36442;DHT22;64346;50.820;16.274;2023-05-03T12:02:09;17.60;54.90
36442;DHT22;64346;50.820;16.274;2023-05-03T12:04:38;17.50;54.60
36442;DHT22;64346;50.820;16.274;2023-05-03T12:07:07;17.30;55.50
36442;DHT22;64346;50.820;16.274;2023-05-03T12:09:36;17.10;56.40
36442;DHT22;64346;50.820;16.274;2023-05-03T12:12:18;16.80;56.10
36442;DHT22;64346;50.820;16.274;2023-05-03T12:14:58;16.60;56.80
36442;DHT22;64346;50.820;16.274;2023-05-03T12:17:38;16.50;57.00
36442;DHT22;64346;50.820;16.274;2023-05-03T12:20:20;16.50;56.60
36442;DHT22;64346;50.820;16.274;2023-05-03T12:22:58;16.60;58.50
36442;DHT22;64346;50.820;16.274;2023-05-03T12:25:31;16.60;57.20
36442;DHT22;64346;50.820;16.274;2023-05-03T12:28:04;16.70;56.60
36442;DHT22;64346;50.820;16.274;2023-05-03T12:30:35;16.70;56.70
36442;DHT22;64346;50.820;16.274;2023-05-03T12:33:08;16.60;55.50
36442;DHT22;64346;50.820;16.274;2023-05-03T12:35:37;16.40;57.50
36442;DHT22;64346;50.820;16.274;2023-05-03T12:38:07;16.30;58.50
36442;DHT22;64346;50.820;16.274;2023-05-03T12:40:36;16.20;58.60
36442;DHT22;64346;50.820;16.274;2023-05-03T12:43:04;16.10;58.20
36442;DHT22;64346;50.820;16.274;2023-05-03T12:45:33;15.90;58.60
36442;DHT22;64346;50.820;16.274;2023-05-03T12:48:01;15.90;59.00
36442;DHT22;64346;50.820;16.274;2023-05-03T12:50:29;16.00;59.10
36442;DHT22;64346;50.820;16.274;2023-05-03T12:52:58;16.00;58.70
36442;DHT22;64346;50.820;16.274;2023-05-03T12:55:31;15.90;58.10
36442;DHT22;64346;50.820;16.274;2023-05-03T12:58:00;15.80;58.50
36442;DHT22;64346;50.820;16.274;2023-05-03T13:00:50;15.70;58.90
36442;DHT22;64346;50.820;16.274;2023-05-03T13:03:39;15.60;58.40
36442;DHT22;64346;50.820;16.274;2023-05-03T13:06:10;15.70;59.00
36442;DHT22;64346;50.820;16.274;2023-05-03T13:08:40;15.70;59.70
36442;DHT22;64346;50.820;16.274;2023-05-03T13:11:16;15.70;59.00
36442;DHT22;64346;50.820;16.274;2023-05-03T13:13:44;15.70;59.40
36442;DHT22;64346;50.820;16.274;2023-05-03T13:16:11;15.70;59.20
36442;DHT22;64346;50.820;16.274;2023-05-03T13:18:38;15.70;59.90
36442;DHT22;64346;50.820;16.274;2023-05-03T13:21:09;15.60;60.70
36442;DHT22;64346;50.820;16.274;2023-05-03T13:23:38;15.50;59.90
36442;DHT22;64346;50.820;16.274;2023-05-03T13:26:05;15.30;60.00
36442;DHT22;64346;50.820;16.274;2023-05-03T13:28:33;15.20;59.70
36442;DHT22;64346;50.820;16.274;2023-05-03T13:31:05;15.00;59.60
36442;DHT22;64346;50.820;16.274;2023-05-03T13:33:32;14.80;59.30
36442;DHT22;64346;50.820;16.274;2023-05-03T13:36:02;14.70;60.00
36442;DHT22;64346;50.820;16.274;2023-05-03T13:38:31;14.50;60.10
36442;DHT22;64346;50.820;16.274;2023-05-03T13:40:59;14.50;61.90
36442;DHT22;64346;50.820;16.274;2023-05-03T13:43:26;14.50;61.90
36442;DHT22;64346;50.820;16.274;2023-05-03T13:45:59;14.60;62.20
36442;DHT22;64346;50.820;16.274;2023-05-03T13:48:27;14.60;61.90
36442;DHT22;64346;50.820;16.274;2023-05-03T13:51:01;14.70;63.00
36442;DHT22;64346;50.820;16.274;2023-05-03T13:53:32;14.70;63.50
36442;DHT22;64346;50.820;16.274;2023-05-03T13:56:00;14.80;63.00
36442;DHT22;64346;50.820;16.274;2023-05-03T13:58:27;14.90;63.20
36442;DHT22;64346;50.820;16.274;2023-05-03T14:00:54;14.90;61.80
36442;DHT22;64346;50.820;16.274;2023-05-03T14:03:24;14.70;61.60
36442;DHT22;64346;50.820;16.274;2023-05-03T14:05:54;14.50;61.20
36442;DHT22;64346;50.820;16.274;2023-05-03T14:08:21;14.30;61.70
36442;DHT22;64346;50.820;16.274;2023-05-03T14:10:49;14.10;61.90
36442;DHT22;64346;50.820;16.274;2023-05-03T14:13:16;13.90;62.40
36442;DHT22;64346;50.820;16.274;2023-05-03T14:15:43;13.80;62.50
36442;DHT22;64346;50.820;16.274;2023-05-03T14:18:11;13.70;62.90
36442;DHT22;64346;50.820;16.274;2023-05-03T14:20:41;13.70;63.10
36442;DHT22;64346;50.820;16.274;2023-05-03T14:23:08;13.70;63.50
36442;DHT22;64346;50.820;16.274;2023-05-03T14:25:35;13.80;64.20
36442;DHT22;64346;50.820;16.274;2023-05-03T14:28:04;13.80;64.30
36442;DHT22;64346;50.820;16.274;2023-05-03T14:30:32;13.80;64.20
36442;DHT22;64346;50.820;16.274;2023-05-03T14:32:59;13.80;64.50
36442;DHT22;64346;50.820;16.274;2023-05-03T14:35:29;13.70;64.60
36442;DHT22;64346;50.820;16.274;2023-05-03T14:37:56;13.60;64.80
36442;DHT22;64346;50.820;16.274;2023-05-03T14:40:26;13.70;65.80
36442;DHT22;64346;50.820;16.274;2023-05-03T14:42:53;13.80;64.70
36442;DHT22;64346;50.820;16.274;2023-05-03T14:45:21;13.70;64.70
36442;DHT22;64346;50.820;16.274;2023-05-03T14:47:49;13.70;64.80
36442;DHT22;64346;50.820;16.274;2023-05-03T14:50:21;13.60;64.70
36442;DHT22;64346;50.820;16.274;2023-05-03T14:52:51;13.50;64.80
36442;DHT22;64346;50.820;16.274;2023-05-03T14:55:18;13.50;65.60
36442;DHT22;64346;50.820;16.274;2023-05-03T14:57:45;13.50;65.20
36442;DHT22;64346;50.820;16.274;2023-05-03T15:00:13;13.40;65.20
36442;DHT22;64346;50.820;16.274;2023-05-03T15:02:43;13.50;65.40
36442;DHT22;64346;50.820;16.274;2023-05-03T15:05:13;13.40;64.80
36442;DHT22;64346;50.820;16.274;2023-05-03T15:07:43;13.40;64.70
36442;DHT22;64346;50.820;16.274;2023-05-03T15:10:10;13.40;64.50
36442;DHT22;64346;50.820;16.274;2023-05-03T15:12:37;13.40;65.00
36442;DHT22;64346;50.820;16.274;2023-05-03T15:15:09;13.40;64.70
36442;DHT22;64346;50.820;16.274;2023-05-03T15:17:36;13.40;65.30
36442;DHT22;64346;50.820;16.274;2023-05-03T15:20:04;13.40;64.50
36442;DHT22;64346;50.820;16.274;2023-05-03T15:22:32;13.30;64.00
36442;DHT22;64346;50.820;16.274;2023-05-03T15:25:02;13.20;64.30
36442;DHT22;64346;50.820;16.274;2023-05-03T15:27:29;13.30;65.00
36442;DHT22;64346;50.820;16.274;2023-05-03T15:29:57;13.30;64.80
36442;DHT22;64346;50.820;16.274;2023-05-03T15:32:24;13.40;64.50
36442;DHT22;64346;50.820;16.274;2023-05-03T15:34:54;13.40;64.70
36442;DHT22;64346;50.820;16.274;2023-05-03T15:37:21;13.40;65.80
36442;DHT22;64346;50.820;16.274;2023-05-03T15:39:48;13.30;65.50
36442;DHT22;64346;50.820;16.274;2023-05-03T15:42:15;13.30;65.40
36442;DHT22;64346;50.820;16.274;2023-05-03T15:44:45;13.20;65.50
36442;DHT22;64346;50.820;16.274;2023-05-03T15:47:12;13.20;66.00
36442;DHT22;64346;50.820;16.274;2023-05-03T15:49:39;13.10;66.10
36442;DHT22;64346;50.820;16.274;2023-05-03T15:52:06;13.10;66.10
36442;DHT22;64346;50.820;16.274;2023-05-03T15:54:37;13.10;66.10
36442;DHT22;64346;50.820;16.274;2023-05-03T15:57:07;13.10;66.60
36442;DHT22;64346;50.820;16.274;2023-05-03T15:59:37;13.00;66.80
36442;DHT22;64346;50.820;16.274;2023-05-03T16:02:04;12.90;66.20
36442;DHT22;64346;50.820;16.274;2023-05-03T16:04:32;13.00;66.90
36442;DHT22;64346;50.820;16.274;2023-05-03T16:07:02;13.00;67.50